createdAt,value
2023-05-19T00:01:55.231Z,99126.56
2023-05-19T00:04:22.638Z,99125.47
2023-05-19T00:06:52.690Z,99119.16
2023-05-19T00:09:19.764Z,99113.16
2023-05-19T00:11:46.926Z,99117.56
2023-05-19T00:14:13.879Z,99121.03
2023-05-19T00:16:42.894Z,99124.81
2023-05-19T00:19:10.621Z,99116.94
2023-05-19T00:21:40.597Z,99120.94
2023-05-19T00:24:08.114Z,99122.13
2023-05-19T00:26:34.862Z,99122.59
2023-05-19T00:29:01.819Z,99122.50
2023-05-19T00:31:29.335Z,99115.31
2023-05-19T00:33:56.112Z,99109.31
2023-05-19T00:36:24.405Z,99114.63
2023-05-19T00:38:51.981Z,99107.34
2023-05-19T00:41:18.987Z,99098.25
2023-05-19T00:43:46.133Z,99103.53
2023-05-19T00:46:13.021Z,99109.00
2023-05-19T00:48:39.781Z,99097.66
2023-05-19T00:51:07.084Z,99108.47
2023-05-19T00:53:35.059Z,99100.34
2023-05-19T00:56:03.182Z,99102.31
2023-05-19T00:58:31.347Z,99090.09
2023-05-19T01:01:04.807Z,99098.84
2023-05-19T01:03:35.646Z,99095.69
2023-05-19T01:06:07.903Z,99082.44
2023-05-19T01:08:36.672Z,99087.47
2023-05-19T01:11:08.458Z,99085.66
2023-05-19T01:13:36.459Z,99082.13
2023-05-19T01:16:10.345Z,99084.72
2023-05-19T01:18:56.516Z,99071.31
2023-05-19T01:21:54.114Z,99072.72
2023-05-19T01:24:30.608Z,99070.84
2023-05-19T01:27:28.302Z,99060.50
2023-05-19T01:30:13.224Z,99064.56
2023-05-19T01:32:42.188Z,99065.66
2023-05-19T01:35:12.849Z,99062.31
2023-05-19T01:37:42.750Z,99068.88
2023-05-19T01:40:10.024Z,99064.47
2023-05-19T01:42:40.370Z,99067.28
2023-05-19T01:45:10.754Z,99063.44
2023-05-19T01:47:42.973Z,99065.66
2023-05-19T01:50:11.246Z,99058.47
2023-05-19T01:52:38.197Z,99067.47
2023-05-19T01:55:07.308Z,99067.53
2023-05-19T01:58:00.829Z,99064.78
2023-05-19T02:00:27.485Z,99059.56
2023-05-19T02:03:00.133Z,99063.00
2023-05-19T02:05:36.353Z,99053.16
2023-05-19T02:08:27.590Z,99053.97
2023-05-19T02:11:00.933Z,99056.88
2023-05-19T02:13:33.932Z,99051.59
2023-05-19T02:16:05.532Z,99049.69
2023-05-19T02:18:33.428Z,99044.31
2023-05-19T02:21:00.195Z,99044.25
2023-05-19T02:23:27.146Z,99046.16
2023-05-19T02:25:55.350Z,99040.56
2023-05-19T02:28:22.434Z,99030.63
2023-05-19T02:30:49.159Z,99033.16
2023-05-19T02:33:15.998Z,99030.13
2023-05-19T02:35:43.977Z,99034.28
2023-05-19T02:38:10.728Z,99018.19
2023-05-19T02:40:37.853Z,99029.19
2023-05-19T02:43:08.229Z,99034.25
2023-05-19T02:45:34.976Z,99027.22
2023-05-19T02:48:01.887Z,99032.50
2023-05-19T02:50:28.602Z,99042.31
2023-05-19T02:52:55.672Z,99037.56
2023-05-19T02:55:22.513Z,99042.34
2023-05-19T02:57:49.264Z,99044.38
2023-05-19T03:00:16.994Z,99054.94
2023-05-19T03:02:44.366Z,99052.63
2023-05-19T03:05:11.326Z,99045.28
2023-05-19T03:07:38.102Z,99035.94
2023-05-19T03:10:06.940Z,99035.84
2023-05-19T03:12:33.889Z,99036.00
2023-05-19T03:15:01.144Z,99038.06
2023-05-19T03:17:34.442Z,99049.78
2023-05-19T03:22:52.331Z,99048.91
2023-05-19T03:25:22.599Z,99034.59
2023-05-19T03:27:50.172Z,99041.53
2023-05-19T03:30:17.113Z,99048.38
2023-05-19T03:32:44.047Z,99040.09
2023-05-19T03:35:10.897Z,99052.25
2023-05-19T03:37:37.693Z,99047.09
2023-05-19T03:40:07.224Z,99045.28
2023-05-19T03:42:33.928Z,99042.78
2023-05-19T03:45:00.767Z,99047.19
2023-05-19T03:47:27.647Z,99046.69
2023-05-19T03:49:54.386Z,99043.13
2023-05-19T03:52:21.873Z,99037.41
2023-05-19T03:54:48.752Z,99042.44
2023-05-19T03:57:16.808Z,99050.34
2023-05-19T03:59:45.701Z,99044.41
2023-05-19T04:02:12.461Z,99053.72
2023-05-19T04:04:40.569Z,99057.53
2023-05-19T04:07:07.529Z,99056.47
2023-05-19T04:09:35.611Z,99054.25
2023-05-19T04:12:03.001Z,99066.97
2023-05-19T04:14:29.752Z,99059.66
2023-05-19T04:16:56.739Z,99066.88
2023-05-19T04:19:23.601Z,99065.66
2023-05-19T04:21:51.085Z,99058.81
2023-05-19T04:24:17.929Z,99066.25
2023-05-19T04:26:47.931Z,99065.41
2023-05-19T04:29:18.256Z,99061.25
2023-05-19T04:31:45.868Z,99062.09
2023-05-19T04:34:12.796Z,99061.09
2023-05-19T04:36:39.617Z,99065.13
2023-05-19T04:39:10.153Z,99057.59
2023-05-19T04:41:40.251Z,99068.59
2023-05-19T04:44:10.238Z,99055.69
2023-05-19T04:46:36.871Z,99056.97
2023-05-19T04:49:03.667Z,99056.81
2023-05-19T04:51:31.603Z,99059.13
2023-05-19T04:53:58.583Z,99065.44
2023-05-19T04:56:25.370Z,99063.34
2023-05-19T04:58:53.810Z,99067.69
2023-05-19T05:01:22.760Z,99066.22
2023-05-19T05:03:49.623Z,99059.09
2023-05-19T05:06:16.448Z,99057.31
2023-05-19T05:08:43.184Z,99060.59
2023-05-19T05:11:10.422Z,99059.28
2023-05-19T05:13:37.466Z,99053.59
2023-05-19T05:16:07.473Z,99060.63
2023-05-19T05:18:35.254Z,99061.84
2023-05-19T05:21:02.464Z,99064.38
2023-05-19T05:23:29.853Z,99062.06
2023-05-19T05:25:56.897Z,99058.59
2023-05-19T05:28:23.954Z,99068.84
2023-05-19T05:30:50.742Z,99068.28
2023-05-19T05:33:18.313Z,99064.22
2023-05-19T05:35:45.389Z,99061.06
2023-05-19T05:38:12.154Z,99065.72
2023-05-19T05:40:40.577Z,99069.88
2023-05-19T05:43:07.318Z,99081.66
2023-05-19T05:45:34.288Z,99076.72
2023-05-19T05:48:01.535Z,99076.63
2023-05-19T05:50:28.798Z,99075.38
2023-05-19T05:52:57.753Z,99072.03
2023-05-19T05:55:24.857Z,99075.00
2023-05-19T05:57:52.273Z,99073.53
2023-05-19T06:00:19.924Z,99073.25
2023-05-19T06:02:49.505Z,99080.94
2023-05-19T06:05:17.245Z,99094.50
2023-05-19T06:07:44.300Z,99086.34
2023-05-19T06:10:11.192Z,99089.00
2023-05-19T06:12:41.214Z,99089.44
2023-05-19T06:15:08.338Z,99097.56
2023-05-19T06:17:38.045Z,99088.13
2023-05-19T06:20:10.250Z,99091.22
2023-05-19T06:22:37.518Z,99093.53
2023-05-19T06:25:05.298Z,99098.38
2023-05-19T06:27:34.544Z,99088.84
2023-05-19T06:30:01.924Z,99090.56
2023-05-19T06:32:30.059Z,99090.22
2023-05-19T06:34:56.791Z,99096.47
2023-05-19T06:37:24.299Z,99098.75
2023-05-19T06:39:53.821Z,99094.00
2023-05-19T06:42:22.783Z,99099.94
2023-05-19T06:44:50.537Z,99099.06
2023-05-19T06:47:18.232Z,99102.84
2023-05-19T06:49:45.933Z,99100.84
2023-05-19T06:52:12.729Z,99095.28
2023-05-19T06:54:40.552Z,99092.34
2023-05-19T06:57:08.625Z,99095.91
2023-05-19T06:59:37.561Z,99091.84
2023-05-19T07:02:04.926Z,99080.53
2023-05-19T07:04:31.756Z,99080.78
2023-05-19T07:06:58.843Z,99075.78
2023-05-19T07:09:25.837Z,99069.53
2023-05-19T07:11:52.589Z,99080.28
2023-05-19T07:14:21.025Z,99082.72
2023-05-19T07:16:47.928Z,99075.09
2023-05-19T07:19:15.108Z,99088.47
2023-05-19T07:21:42.700Z,99066.13
2023-05-19T07:24:09.534Z,99088.03
2023-05-19T07:26:37.643Z,99085.28
2023-05-19T07:29:06.917Z,99077.84
2023-05-19T07:31:33.768Z,99071.19
2023-05-19T07:34:00.879Z,99076.06
2023-05-19T07:36:27.760Z,99080.44
2023-05-19T07:38:54.520Z,99087.44
2023-05-19T07:41:21.900Z,99088.94
2023-05-19T07:43:49.352Z,99084.16
2023-05-19T07:46:16.577Z,99086.47
2023-05-19T07:48:44.238Z,99087.16
2023-05-19T07:51:12.828Z,99088.31
2023-05-19T07:53:39.656Z,99097.94
2023-05-19T07:56:07.136Z,99090.84
2023-05-19T07:58:34.070Z,99075.72
2023-05-19T08:01:00.916Z,99084.72
2023-05-19T08:03:28.417Z,99079.53
2023-05-19T08:05:55.631Z,99081.91
2023-05-19T08:08:22.403Z,99082.88
2023-05-19T08:10:49.446Z,99094.06
2023-05-19T08:13:16.300Z,99088.56
2023-05-19T08:15:44.695Z,99087.66
2023-05-19T08:18:11.786Z,99090.44
2023-05-19T08:20:38.707Z,99099.16
2023-05-19T08:23:05.614Z,99092.63
2023-05-19T08:25:33.207Z,99094.16
2023-05-19T08:28:00.004Z,99105.41
2023-05-19T08:30:26.897Z,99095.88
2023-05-19T08:32:53.762Z,99098.72
2023-05-19T08:35:20.768Z,99102.81
2023-05-19T08:37:47.821Z,99105.53
2023-05-19T08:40:21.402Z,99105.31
2023-05-19T08:42:49.579Z,99104.53
2023-05-19T08:45:17.428Z,99102.28
2023-05-19T08:47:46.661Z,99101.53
2023-05-19T08:50:18.554Z,99102.78
2023-05-19T08:52:53.310Z,99107.97
2023-05-19T08:55:34.723Z,99099.63
2023-05-19T08:58:03.642Z,99092.03
2023-05-19T09:00:31.103Z,99100.72
2023-05-19T09:03:16.942Z,99101.72
2023-05-19T09:05:46.803Z,99106.16
2023-05-19T09:08:13.825Z,99101.28
2023-05-19T09:10:40.821Z,99098.72
2023-05-19T09:13:07.612Z,99099.72
2023-05-19T09:15:37.003Z,99101.03
2023-05-19T09:18:17.243Z,99099.28
2023-05-19T09:20:46.081Z,99106.31
2023-05-19T09:23:17.762Z,99102.88
2023-05-19T09:25:54.988Z,99104.84
2023-05-19T09:28:29.685Z,99100.66
2023-05-19T09:31:10.346Z,99100.53
2023-05-19T09:33:46.068Z,99100.28
2023-05-19T09:36:14.282Z,99097.59
2023-05-19T09:38:41.640Z,99098.97
2023-05-19T09:41:09.324Z,99098.47
2023-05-19T09:43:36.643Z,99102.38
2023-05-19T09:46:06.148Z,99099.22
2023-05-19T09:48:34.749Z,99103.13
2023-05-19T09:51:02.585Z,99099.69
2023-05-19T09:53:32.826Z,99101.81
2023-05-19T09:56:02.965Z,99096.00
2023-05-19T09:58:35.533Z,99089.72
2023-05-19T10:01:04.807Z,99096.13
2023-05-19T10:03:34.595Z,99089.97
2023-05-19T10:06:01.727Z,99093.78
2023-05-19T10:08:30.807Z,99088.22
2023-05-19T10:10:59.362Z,99088.69
2023-05-19T10:13:29.596Z,99090.56
2023-05-19T10:15:59.630Z,99093.75
2023-05-19T10:18:29.828Z,99082.91
2023-05-19T10:20:58.289Z,99085.28
2023-05-19T10:23:25.748Z,99091.94
2023-05-19T10:25:57.212Z,99088.47
2023-05-19T10:28:28.583Z,99091.44
2023-05-19T10:31:01.228Z,99089.94
2023-05-19T10:34:19.256Z,99088.97
2023-05-19T10:36:59.785Z,99081.81
2023-05-19T10:39:33.122Z,99084.53
2023-05-19T10:41:59.761Z,99077.00
2023-05-19T10:44:55.469Z,99079.56
2023-05-19T10:47:26.398Z,99085.69
2023-05-19T10:49:57.311Z,99084.06
2023-05-19T10:52:29.866Z,99080.63
2023-05-19T10:54:58.530Z,99077.78
2023-05-19T10:57:32.043Z,99084.81
2023-05-19T11:00:11.870Z,99086.03
2023-05-19T11:02:40.822Z,99080.00
2023-05-19T11:05:09.831Z,99076.56
2023-05-19T11:07:42.074Z,99074.28
2023-05-19T11:10:09.232Z,99080.00
2023-05-19T11:12:45.051Z,99086.41
2023-05-19T11:15:14.111Z,99083.25
2023-05-19T11:17:44.432Z,99086.81
2023-05-19T11:20:27.062Z,99085.34
2023-05-19T11:23:08.119Z,99078.56
2023-05-19T11:26:02.491Z,99075.66
2023-05-19T11:28:30.751Z,99069.09
2023-05-19T11:30:59.296Z,99066.84
2023-05-19T11:33:30.995Z,99078.09
2023-05-19T11:35:58.824Z,99084.84
2023-05-19T11:38:26.655Z,99073.03
2023-05-19T11:40:54.653Z,99071.34
2023-05-19T11:43:25.900Z,99076.03
2023-05-19T11:45:55.262Z,99068.25
2023-05-19T11:48:22.736Z,99072.91
2023-05-19T11:50:50.398Z,99071.16
2023-05-19T11:53:19.933Z,99081.34
2023-05-19T11:55:47.682Z,99083.56
2023-05-19T11:58:15.470Z,99091.47
2023-05-19T12:00:46.235Z,99087.03
2023-05-19T12:03:13.404Z,99082.22
2023-05-19T12:05:49.211Z,99083.78
2023-05-19T12:08:19.816Z,99084.28
2023-05-19T12:10:53.640Z,99082.53
2023-05-19T12:13:21.177Z,99082.41
2023-05-19T12:15:48.030Z,99083.28
2023-05-19T12:18:14.835Z,99087.69
2023-05-19T12:20:42.054Z,99085.13
2023-05-19T12:23:10.028Z,99080.53
2023-05-19T12:25:38.983Z,99072.19
2023-05-19T12:28:05.766Z,99068.41
2023-05-19T12:30:33.956Z,99059.13
2023-05-19T12:33:02.426Z,99058.31
2023-05-19T12:35:33.391Z,99053.22
2023-05-19T12:38:05.545Z,99046.72
2023-05-19T12:40:35.077Z,99046.00
2023-05-19T12:43:02.460Z,99051.19
2023-05-19T12:45:35.039Z,99048.06
2023-05-19T12:48:06.812Z,99049.38
2023-05-19T12:50:34.771Z,99051.78
2023-05-19T12:53:02.178Z,99060.94
2023-05-19T12:55:29.785Z,99053.22
2023-05-19T12:57:58.698Z,99056.47
2023-05-19T13:00:29.244Z,99052.72
2023-05-19T13:02:57.191Z,99054.34
2023-05-19T13:05:24.874Z,99055.69
2023-05-19T13:08:00.709Z,99051.66
2023-05-19T13:10:28.462Z,99046.00
2023-05-19T13:12:56.633Z,99049.97
2023-05-19T13:15:26.620Z,99048.28
2023-05-19T13:17:54.261Z,99051.59
2023-05-19T13:20:22.308Z,99052.16
2023-05-19T13:22:49.317Z,99052.72
2023-05-19T13:25:16.912Z,99053.00
2023-05-19T13:27:46.082Z,99046.38
2023-05-19T13:30:13.681Z,99048.97
2023-05-19T13:32:40.499Z,99045.16
2023-05-19T13:35:07.860Z,99048.72
2023-05-19T13:37:37.489Z,99044.84
2023-05-19T13:40:04.409Z,99042.16
2023-05-19T13:42:33.157Z,99038.00
2023-05-19T13:44:59.908Z,99045.06
2023-05-19T13:47:27.055Z,99040.94
2023-05-19T13:49:55.798Z,99035.97
2023-05-19T13:52:22.967Z,99028.53
2023-05-19T13:54:49.953Z,99023.50
2023-05-19T13:57:17.044Z,99030.38
2023-05-19T13:59:57.592Z,99025.59
2023-05-19T14:02:27.555Z,99030.22
2023-05-19T14:04:54.530Z,99032.88
2023-05-19T14:07:21.361Z,99035.94
2023-05-19T14:09:48.161Z,99035.25
2023-05-19T14:12:15.583Z,99037.19
2023-05-19T14:14:42.398Z,99044.22
2023-05-19T14:17:09.209Z,99042.75
2023-05-19T14:19:36.090Z,99044.38
2023-05-19T14:22:02.878Z,99053.13
2023-05-19T14:24:29.708Z,99050.63
2023-05-19T14:26:56.494Z,99052.47
2023-05-19T14:29:23.332Z,99061.63
2023-05-19T14:31:50.169Z,99059.91
2023-05-19T14:34:21.079Z,99056.59
2023-05-19T14:36:48.856Z,99060.00
2023-05-19T14:39:16.510Z,99055.94
2023-05-19T14:41:43.276Z,99050.00
2023-05-19T14:44:10.745Z,99057.34
2023-05-19T14:46:37.620Z,99063.47
2023-05-19T14:49:06.558Z,99063.88
2023-05-19T14:51:33.530Z,99065.97
2023-05-19T14:54:01.352Z,99060.53
2023-05-19T14:56:28.274Z,99063.13
2023-05-19T14:58:56.614Z,99052.88
2023-05-19T15:01:23.618Z,99062.03
2023-05-19T15:03:52.115Z,99064.25
2023-05-19T15:06:18.867Z,99056.63
2023-05-19T15:08:46.048Z,99050.75
2023-05-19T15:11:13.102Z,99053.72
2023-05-19T15:13:40.070Z,99055.44
2023-05-19T15:16:17.750Z,99057.66
2023-05-19T15:18:45.639Z,99054.19
2023-05-19T15:21:12.625Z,99055.56
2023-05-19T15:23:39.431Z,99058.03
2023-05-19T15:26:07.022Z,99051.88
2023-05-19T15:28:34.348Z,99056.19
2023-05-19T15:31:01.268Z,99061.00
2023-05-19T15:33:28.396Z,99061.63
2023-05-19T15:35:55.121Z,99058.66
2023-05-19T15:38:22.002Z,99055.09
2023-05-19T15:40:49.820Z,99052.38
2023-05-19T15:43:17.589Z,99055.09
2023-05-19T15:45:44.339Z,99047.91
2023-05-19T15:48:11.682Z,99042.59
2023-05-19T15:50:38.752Z,99038.16
2023-05-19T15:53:07.804Z,99049.25
2023-05-19T15:55:34.679Z,99040.72
2023-05-19T15:58:01.598Z,99048.97
2023-05-19T16:00:28.420Z,99046.25
2023-05-19T16:02:55.209Z,99044.56
2023-05-19T16:05:22.099Z,99038.84
2023-05-19T16:07:48.837Z,99039.59
2023-05-19T16:10:15.717Z,99055.34
2023-05-19T16:12:42.573Z,99050.53
2023-05-19T16:15:09.863Z,99047.56
2023-05-19T16:17:36.605Z,99048.88
2023-05-19T16:20:04.107Z,99055.97
2023-05-19T16:22:31.572Z,99054.94
2023-05-19T16:24:58.357Z,99062.59
2023-05-19T16:27:25.146Z,99056.72
2023-05-19T16:29:52.047Z,99061.53
2023-05-19T16:32:18.909Z,99065.09
2023-05-19T16:34:45.997Z,99073.38
2023-05-19T16:37:12.782Z,99070.66
2023-05-19T16:39:40.498Z,99068.84
2023-05-19T16:42:07.459Z,99069.00
2023-05-19T16:44:34.886Z,99058.50
2023-05-19T16:47:01.587Z,99070.50
2023-05-19T16:49:28.447Z,99063.16
2023-05-19T16:51:55.928Z,99071.22
2023-05-19T16:54:23.533Z,99069.59
2023-05-19T16:56:51.329Z,99064.97
2023-05-19T16:59:18.978Z,99070.69
2023-05-19T17:01:45.868Z,99072.09
2023-05-19T17:04:13.344Z,99070.16
2023-05-19T17:06:40.306Z,99068.09
2023-05-19T17:09:07.121Z,99070.50
2023-05-19T17:11:34.222Z,99070.97
2023-05-19T17:14:04.922Z,99067.16
2023-05-19T17:16:31.757Z,99069.75
2023-05-19T17:18:58.604Z,99071.28
2023-05-19T17:21:26.245Z,99082.78
2023-05-19T17:23:53.031Z,99071.00
2023-05-19T17:26:19.910Z,99066.28
2023-05-19T17:28:46.698Z,99068.22
2023-05-19T17:31:15.262Z,99069.19
2023-05-19T17:33:43.539Z,99072.09
2023-05-19T17:36:10.578Z,99071.91
2023-05-19T17:38:40.485Z,99066.84
2023-05-19T17:41:12.262Z,99072.03
2023-05-19T17:43:40.895Z,99079.91
2023-05-19T17:46:07.912Z,99077.97
2023-05-19T17:48:36.501Z,99077.13
2023-05-19T17:51:05.105Z,99080.84
2023-05-19T17:53:34.250Z,99078.88
2023-05-19T17:56:03.818Z,99082.22
2023-05-19T17:58:30.848Z,99088.91
2023-05-19T18:00:57.849Z,99093.88
2023-05-19T18:03:26.392Z,99095.41
2023-05-19T18:05:53.532Z,99096.28
2023-05-19T18:08:20.741Z,99095.50
2023-05-19T18:10:48.809Z,99095.28
2023-05-19T18:13:15.768Z,99097.22
2023-05-19T18:15:42.817Z,99099.69
2023-05-19T18:18:10.996Z,99101.78
2023-05-19T18:20:41.443Z,99100.81
2023-05-19T18:23:08.249Z,99107.50
2023-05-19T18:25:35.933Z,99102.63
2023-05-19T18:28:02.760Z,99113.81
2023-05-19T18:30:29.776Z,99113.63
2023-05-19T18:32:56.762Z,99109.16
2023-05-19T18:35:23.726Z,99123.75
2023-05-19T18:37:51.678Z,99107.22
2023-05-19T18:40:18.461Z,99112.91
2023-05-19T18:42:45.465Z,99115.59
2023-05-19T18:45:12.407Z,99118.31
2023-05-19T18:47:39.269Z,99125.84
2023-05-19T18:50:07.276Z,99122.69
2023-05-19T18:52:34.078Z,99121.06
2023-05-19T18:55:01.362Z,99127.41
2023-05-19T18:57:28.933Z,99132.53
2023-05-19T18:59:55.806Z,99133.72
2023-05-19T19:02:22.963Z,99137.09
2023-05-19T19:04:50.027Z,99133.88
2023-05-19T19:07:16.915Z,99134.75
2023-05-19T19:09:44.033Z,99133.13
2023-05-19T19:12:11.137Z,99140.09
2023-05-19T19:14:38.637Z,99143.22
2023-05-19T19:17:06.134Z,99138.69
2023-05-19T19:19:33.373Z,99143.75
2023-05-19T19:22:00.477Z,99142.66
2023-05-19T19:24:28.726Z,99136.78
2023-05-19T19:26:55.622Z,99130.16
2023-05-19T19:29:22.428Z,99131.53
2023-05-19T19:31:49.310Z,99135.72
2023-05-19T19:34:17.835Z,99138.69
2023-05-19T19:36:48.035Z,99140.97
2023-05-19T19:39:14.971Z,99139.84
2023-05-19T19:41:41.809Z,99134.44
2023-05-19T19:44:08.612Z,99129.72
2023-05-19T19:46:35.877Z,99128.13
2023-05-19T19:49:02.798Z,99128.28
2023-05-19T19:51:29.984Z,99118.38
2023-05-19T19:53:58.441Z,99122.81
2023-05-19T19:56:27.653Z,99130.81
2023-05-19T19:58:56.914Z,99129.25
2023-05-19T20:01:27.750Z,99129.25
2023-05-19T20:03:55.487Z,99135.13
2023-05-19T20:06:22.442Z,99130.94
2023-05-19T20:08:49.983Z,99119.38
2023-05-19T20:11:17.499Z,99125.97
2023-05-19T20:13:44.332Z,99129.06
2023-05-19T20:16:11.180Z,99127.03
2023-05-19T20:18:38.851Z,99120.75
2023-05-19T20:21:05.677Z,99127.31
2023-05-19T20:23:32.598Z,99125.44
2023-05-19T20:26:11.826Z,99129.00
2023-05-19T20:28:39.824Z,99125.44
2023-05-19T20:31:08.090Z,99113.41
2023-05-19T20:33:35.085Z,99120.16
2023-05-19T20:36:01.960Z,99131.66
2023-05-19T20:38:28.718Z,99126.19
2023-05-19T20:40:55.772Z,99117.41
2023-05-19T20:43:22.569Z,99118.19
2023-05-19T20:45:49.443Z,99116.44
2023-05-19T20:48:16.675Z,99129.25
2023-05-19T20:50:43.505Z,99117.88
2023-05-19T20:53:10.282Z,99119.53
2023-05-19T20:55:38.888Z,99126.38
2023-05-19T20:58:05.848Z,99115.09
2023-05-19T21:00:32.901Z,99119.25
2023-05-19T21:03:00.347Z,99125.91
2023-05-19T21:05:27.212Z,99130.03
2023-05-19T21:07:55.672Z,99127.13
2023-05-19T21:10:23.470Z,99120.97
2023-05-19T21:12:50.189Z,99127.03
2023-05-19T21:15:17.560Z,99124.16
2023-05-19T21:17:44.401Z,99130.59
2023-05-19T21:20:13.833Z,99125.91
2023-05-19T21:22:41.035Z,99122.22
2023-05-19T21:25:08.171Z,99126.94
2023-05-19T21:27:37.026Z,99116.94
2023-05-19T21:30:06.122Z,99120.03
2023-05-19T21:32:33.007Z,99112.06
2023-05-19T21:35:00.247Z,99115.16
2023-05-19T21:37:28.167Z,99118.03
2023-05-19T21:39:54.921Z,99115.75
2023-05-19T21:42:21.749Z,99120.03
2023-05-19T21:44:48.524Z,99122.91
2023-05-19T21:47:16.176Z,99121.38
2023-05-19T21:49:43.158Z,99128.88
2023-05-19T21:52:10.452Z,99121.94
2023-05-19T21:54:37.294Z,99126.47
2023-05-19T21:57:04.240Z,99130.97
2023-05-19T21:59:30.998Z,99125.25
2023-05-19T22:01:58.500Z,99129.16
2023-05-19T22:04:25.524Z,99128.22
2023-05-19T22:06:53.110Z,99131.31
2023-05-19T22:09:19.895Z,99136.47
2023-05-19T22:11:46.681Z,99139.00
2023-05-19T22:14:13.682Z,99141.59
2023-05-19T22:16:40.600Z,99129.56
2023-05-19T22:19:07.648Z,99133.50
2023-05-19T22:21:34.521Z,99140.34
2023-05-19T22:24:02.603Z,99129.25
2023-05-19T22:26:30.600Z,99131.38
2023-05-19T22:28:58.572Z,99124.34
2023-05-19T22:31:25.317Z,99121.84
2023-05-19T22:33:53.100Z,99125.22
2023-05-19T22:36:19.928Z,99124.06
2023-05-19T22:38:46.653Z,99117.69
2023-05-19T22:41:13.421Z,99124.06
2023-05-19T22:43:40.307Z,99123.00
2023-05-19T22:46:07.331Z,99119.25
2023-05-19T22:48:34.138Z,99118.56
2023-05-19T22:51:01.024Z,99117.16
2023-05-19T22:53:27.742Z,99113.28
2023-05-19T22:55:54.515Z,99111.94
2023-05-19T22:58:21.314Z,99117.59
2023-05-19T23:00:48.133Z,99112.97
2023-05-19T23:03:16.192Z,99110.19
2023-05-19T23:05:44.404Z,99108.38
2023-05-19T23:08:11.497Z,99107.50
2023-05-19T23:10:38.367Z,99110.69
2023-05-19T23:13:05.135Z,99111.06
2023-05-19T23:15:32.114Z,99098.84
2023-05-19T23:17:59.081Z,99108.25
2023-05-19T23:20:25.826Z,99100.72
2023-05-19T23:22:52.606Z,99104.31
2023-05-19T23:25:19.389Z,99109.50
2023-05-19T23:27:47.055Z,99112.69
2023-05-19T23:30:13.773Z,99107.22
2023-05-19T23:32:41.724Z,99098.34
2023-05-19T23:35:13.058Z,99101.72
2023-05-19T23:37:39.970Z,99100.41
2023-05-19T23:40:08.503Z,99089.44
2023-05-19T23:42:35.343Z,99093.16
2023-05-19T23:45:02.484Z,99083.75
2023-05-19T23:47:29.236Z,99083.53
2023-05-19T23:49:56.524Z,99081.34
2023-05-19T23:52:23.270Z,99080.28
2023-05-19T23:54:55.010Z,99077.41
2023-05-19T23:57:21.888Z,99087.28
2023-05-19T23:59:48.666Z,99082.31
